Airfield :
LOGIN :

Register | Disclaimer

   EN    FR    IT 

 










Legend :    VFR   Marginal VFR   IFR   Intensive IFR   Very Intensive IFR
Visi :
Ceiling :
>= 8 km
>= 3000ft
5 to 8 km
1000 to 3000 ft
1500m to 5 km
500 to 1000 ft
800 to 1500m
200 to 500 ft
< 800m
< 200 ft
Symbols :   Thunderstorms  Fog  Heavy snow  Heavy precipitations  Wind > 20 kt
SIGMETs :     Misc.  Thunderstorms  Icing  Turbulence  Mountain Waves  Volcanic Ashes






- Airport Elevation : 1989 ft
- IATA code : KLV


LKKV - Karlovy Vary

CURRENT METAR :
  • 100500Z 09003KT CAVOK 16/13 Q1013

EXPIRED METARs :
  • 100400Z 09002KT CAVOK 13/12 Q1013
  • 100300Z VRB02KT CAVOK 13/11 Q1013

TAF TAF LKKV
Valid from the 10 at 06:00 until the 11 at 12:00 UTC


100500Z 1006/1112 18004KT CAVOK
BECMG 1008/1010 27008KT
PROB30
TEMPO 1014/1019 29012G24KT 7000 SHRA SCT050CB
BECMG 1021/1023 35005KT
BECMG 1101/1103 9999 BKN027
TEMPO 1103/1108 6000 RA OVC017



MET'MAP, your aeronautical weather chart ! - Copyright ORBIFLY December 2007 - Disclaimer

ORBIFLY MET'MAP TEAM :

Programming & Development : Alexandra Zaïnal
Concept & original design : Baudouin d'Aumeries
Assistance for programming : Marc-Olivier Méhu
Technical & hardware support : Manuel Goepfert

Contact : metmap@orbifly.com




SOURCES & CREDITS :

   NOAA